Time;durP1;ratioP1;P1;durP2;ratioP2;P2;SDS_P1;SDS_P2;PMS_P1;PMS_P2;Temp;Humidity;BMP_temperature;BMP_pressure;BME280_temperature;BME280_humidity;BME280_pressure;Samples;Min_cycle;Max_cycle;Signal;HPM_P1;HPM_P2
2023/03/09 00:02:00;;;;;;;17.30;8.80;;;;;;;4.14;64.23;99200.08;105770;1257;65378;-53
2023/03/09 00:04:29;;;;;;;15.30;8.70;;;;;;;4.14;64.12;99203.92;105534;1254;62672;-54
2023/03/09 00:07:00;;;;;;;25.40;18.30;;;;;;;4.12;64.15;99199.23;105601;1254;65028;-53
2023/03/09 00:09:29;;;;;;;16.10;7.90;;;;;;;4.08;64.28;99197.04;105560;1254;59667;-54
2023/03/09 00:11:57;;;;;;;17.50;8.30;;;;;;;4.03;64.31;99197.77;105562;1253;59679;-54
2023/03/09 00:14:26;;;;;;;15.30;8.30;;;;;;;3.99;64.42;99199.41;105655;1258;65697;-53
2023/03/09 00:16:54;;;;;;;15.80;8.50;;;;;;;3.94;64.46;99198.73;105516;1254;62532;-54
2023/03/09 00:19:30;;;;;;;26.00;19.30;;;;;;;3.88;64.65;99194.13;105635;1254;65279;-53
2023/03/09 00:21:58;;;;;;;12.10;6.30;;;;;;;3.82;64.59;99188.46;105565;1258;60869;-53
2023/03/09 00:24:28;;;;;;;16.40;5.00;;;;;;;3.82;64.48;99182.39;105579;1254;59742;-54
2023/03/09 00:26:59;;;;;;;20.40;15.40;;;;;;;3.84;64.29;99172.91;105651;1257;65331;-54
2023/03/09 00:29:29;;;;;;;12.60;5.50;;;;;;;3.82;64.12;99154.62;105575;1254;62612;-54
2023/03/09 00:31:58;;;;;;;12.00;5.60;;;;;;;3.83;64.05;99141.38;105481;1254;65198;-54
2023/03/09 00:34:26;;;;;;;24.20;16.70;;;;;;;3.84;64.05;99132.27;105555;1254;59698;-54
2023/03/09 00:36:55;;;;;;;12.50;6.50;;;;;;;3.89;63.99;99125.69;105532;1254;59571;-54
2023/03/09 00:39:24;;;;;;;14.40;6.60;;;;;;;3.96;63.62;99118.94;105592;1254;65272;-54
2023/03/09 00:41:52;;;;;;;14.30;7.00;;;;;;;3.91;63.44;99112.21;105584;1257;62785;-54
2023/03/09 00:44:21;;;;;;;21.80;15.80;;;;;;;3.69;63.79;99104.54;105561;1258;65002;-54
2023/03/09 00:46:49;;;;;;;17.90;8.30;;;;;;;3.56;64.09;99095.77;105591;1254;60645;-54
2023/03/09 00:49:18;;;;;;;16.10;7.00;;;;;;;3.49;64.16;99088.09;105501;1254;60501;-53
2023/03/09 00:51:48;;;;;;;12.50;6.10;;;;;;;3.43;64.13;99084.92;105640;1254;65210;-54
2023/03/09 00:54:16;;;;;;;18.50;8.90;;;;;;;3.35;64.14;99078.89;105639;1254;64811;-54
2023/03/09 00:56:45;;;;;;;17.10;8.20;;;;;;;3.29;64.25;99074.33;105529;1254;64586;-54
2023/03/09 00:59:13;;;;;;;24.00;16.50;;;;;;;3.23;64.34;99071.61;105743;1254;60571;-54
2023/03/09 01:01:42;;;;;;;15.70;8.00;;;;;;;3.19;64.49;99067.38;105623;1257;61309;-53
2023/03/09 01:04:13;;;;;;;14.70;5.90;;;;;;;3.22;64.42;99063.73;105924;1253;66209;-54
2023/03/09 01:06:42;;;;;;;13.40;4.50;;;;;;;3.29;64.46;99058.16;105519;1259;61620;-54
2023/03/09 01:09:10;;;;;;;9.20;4.30;;;;;;;3.35;64.41;99053.94;105749;1257;73832;-54
2023/03/09 01:11:41;;;;;;;11.90;5.20;;;;;;;3.41;64.56;99054.60;105596;1254;60542;-53
2023/03/09 01:14:10;;;;;;;10.80;4.80;;;;;;;3.49;64.74;99052.44;105564;1254;60435;-54
2023/03/09 01:16:39;;;;;;;14.60;6.50;;;;;;;3.56;64.93;99048.95;105671;1257;65957;-54
2023/03/09 01:19:08;;;;;;;20.30;15.30;;;;;;;3.61;65.04;99046.16;105599;1254;62594;-53
2023/03/09 01:21:37;;;;;;;14.30;6.50;;;;;;;3.64;65.01;99042.17;105523;1254;65043;-53
2023/03/09 01:24:09;;;;;;;15.70;6.80;;;;;;;3.65;65.14;99030.66;105388;1254;60504;-53
2023/03/09 01:26:38;;;;;;;20.40;15.50;;;;;;;3.66;65.00;99033.31;105596;1254;60479;-53
2023/03/09 01:29:06;;;;;;;13.00;6.80;;;;;;;3.65;64.97;99032.01;105703;1256;65988;-53
2023/03/09 01:31:35;;;;;;;13.70;5.30;;;;;;;3.63;65.12;99026.77;105643;1257;61841;-53
2023/03/09 01:34:04;;;;;;;15.40;6.70;;;;;;;3.60;65.18;99022.34;105695;1254;65064;-53
2023/03/09 01:36:33;;;;;;;11.50;5.90;;;;;;;3.57;65.32;99011.48;105540;1254;60537;-53
2023/03/09 01:39:02;;;;;;;15.50;8.10;;;;;;;3.54;65.50;99008.86;105491;1254;60533;-53
2023/03/09 01:41:30;;;;;;;13.30;6.30;;;;;;;3.52;65.61;99003.98;105684;1257;66043;-53
2023/03/09 01:43:58;;;;;;;12.70;7.00;;;;;;;3.51;65.80;99000.44;105535;1254;62727;-53
2023/03/09 01:46:29;;;;;;;12.40;6.20;;;;;;;3.51;65.99;98996.79;105578;1254;73709;-53
2023/03/09 01:49:06;;;;;;;12.20;5.00;;;;;;;3.58;66.12;98989.70;105622;1254;60454;-53
2023/03/09 01:52:01;;;;;;;19.00;14.30;;;;;;;3.70;66.09;98979.83;105665;1254;60558;-54
2023/03/09 01:55:25;;;;;;;10.50;4.00;;;;;;;3.83;66.10;98980.59;105657;1256;66206;-53
2023/03/09 01:57:57;;;;;;;12.60;3.80;;;;;;;4.00;66.14;98978.77;105108;1260;62649;-53
2023/03/09 02:00:26;;;;;;;10.90;4.40;;;;;;;4.15;66.14;98985.09;104927;1260;64838;-55
2023/03/09 02:03:13;;;;;;;16.90;12.30;;;;;;;4.26;66.26;98986.02;105328;1254;60623;-56
2023/03/09 02:05:49;;;;;;;11.10;6.80;;;;;;;4.39;66.45;98981.75;105491;1254;60473;-55
2023/03/09 02:08:18;;;;;;;11.00;4.80;;;;;;;4.45;66.31;98970.17;105560;1258;66380;-54
2023/03/09 02:10:55;;;;;;;20.40;15.20;;;;;;;4.48;66.14;98974.48;105742;1254;61348;-54
2023/03/09 02:13:30;;;;;;;10.50;4.70;;;;;;;4.50;66.17;98980.40;105692;1256;64187;-54
2023/03/09 02:15:58;;;;;;;12.60;5.30;;;;;;;4.54;66.34;98979.88;105449;1254;60578;-54
2023/03/09 02:18:27;;;;;;;17.50;13.00;;;;;;;4.60;66.34;98985.00;105659;1258;60545;-52
2023/03/09 02:21:14;;;;;;;12.10;5.00;;;;;;;4.65;66.39;98989.98;105471;1258;65898;-52
2023/03/09 02:23:52;;;;;;;12.30;4.80;;;;;;;4.76;66.18;98991.20;105732;1254;62722;-53
2023/03/09 02:26:41;;;;;;;18.30;11.90;;;;;;;4.88;65.91;98987.89;105668;1254;65030;-54
2023/03/09 02:29:16;;;;;;;9.60;4.80;;;;;;;4.98;65.75;98988.77;105519;1254;60493;-54
2023/03/09 02:31:45;;;;;;;15.50;11.50;;;;;;;5.11;65.84;98986.42;105636;1254;60559;-54
2023/03/09 02:34:13;;;;;;;8.10;3.60;;;;;;;5.18;65.61;98981.01;105488;1258;66239;-53
2023/03/09 02:36:42;;;;;;;14.70;6.10;;;;;;;5.20;65.47;98978.75;105613;1254;62811;-53
2023/03/09 02:39:18;;;;;;;18.80;13.50;;;;;;;5.24;65.64;98982.62;105782;1254;64759;-53
2023/03/09 02:41:46;;;;;;;10.60;5.30;;;;;;;5.28;65.61;98983.15;105444;1254;60581;-54
2023/03/09 02:44:16;;;;;;;15.40;12.10;;;;;;;5.30;65.50;98983.15;105798;1254;60578;-53
2023/03/09 02:46:44;;;;;;;10.00;4.70;;;;;;;5.30;65.47;98981.58;105495;1259;65874;-54
2023/03/09 02:49:15;;;;;;;14.90;10.80;;;;;;;5.31;65.56;98984.11;105708;1259;61732;-53
2023/03/09 02:51:44;;;;;;;14.90;10.90;;;;;;;5.34;65.59;98983.81;105667;1259;64209;-53
2023/03/09 02:54:17;;;;;;;8.80;4.70;;;;;;;5.43;65.52;98981.03;105419;1254;60535;-54
2023/03/09 02:56:46;;;;;;;17.30;10.40;;;;;;;5.55;65.38;98978.35;105525;1259;61452;-52
2023/03/09 02:59:14;;;;;;;11.40;3.60;;;;;;;5.66;65.32;98980.55;105578;1254;65191;-54
2023/03/09 03:01:49;;;;;;;10.40;4.30;;;;;;;5.75;65.29;98976.73;105572;1254;62608;-54
2023/03/09 03:04:18;;;;;;;8.40;4.00;;;;;;;5.82;65.30;98971.65;105652;1254;64999;-54
2023/03/09 03:06:46;;;;;;;15.60;11.10;;;;;;;5.87;65.06;98960.94;105496;1254;60537;-54
2023/03/09 03:09:16;;;;;;;13.70;10.40;;;;;;;5.92;64.87;98952.98;105662;1257;60732;-54
2023/03/09 03:11:47;;;;;;;15.70;11.20;;;;;;;5.97;64.64;98957.87;105492;1259;65931;-54
2023/03/09 03:14:15;;;;;;;7.40;3.20;;;;;;;5.98;64.44;98968.89;105587;1254;62623;-54
2023/03/09 03:16:44;;;;;;;16.20;11.20;;;;;;;6.00;64.30;98972.08;105557;1254;64791;-54
2023/03/09 03:19:12;;;;;;;15.80;10.70;;;;;;;6.01;64.12;98969.54;105569;1254;60364;-55
2023/03/09 03:21:41;;;;;;;15.20;10.00;;;;;;;6.08;63.76;98968.80;105771;1254;60472;-52
2023/03/09 03:24:10;;;;;;;16.60;10.30;;;;;;;6.18;63.57;98966.93;105522;1259;65987;-53
2023/03/09 03:26:40;;;;;;;14.70;10.50;;;;;;;6.28;63.45;98962.61;105652;1259;61627;-53
2023/03/09 03:29:10;;;;;;;15.40;11.00;;;;;;;6.35;63.19;98960.58;105469;1259;63993;-53
2023/03/09 03:31:39;;;;;;;14.70;10.90;;;;;;;6.40;63.01;98965.06;105403;1254;61721;-56
2023/03/09 03:34:08;;;;;;;14.20;9.90;;;;;;;6.43;62.87;98965.98;105500;1258;60508;-54
2023/03/09 03:36:43;;;;;;;9.70;3.70;;;;;;;6.46;62.66;98970.97;105498;1257;66236;-54
2023/03/09 03:39:12;;;;;;;9.70;3.80;;;;;;;6.47;62.49;98979.26;105453;1254;62361;-53
2023/03/09 03:41:41;;;;;;;15.50;10.70;;;;;;;6.47;62.34;98983.80;105454;1260;64680;-54
2023/03/09 03:44:11;;;;;;;15.20;10.50;;;;;;;6.45;62.16;98987.39;105636;1254;60447;-55
2023/03/09 03:46:40;;;;;;;13.90;4.60;;;;;;;6.44;62.07;98991.73;105863;1254;60407;-55
2023/03/09 03:49:10;;;;;;;9.10;3.70;;;;;;;6.48;61.87;98989.24;105688;1258;66368;-54
2023/03/09 03:51:39;;;;;;;14.30;9.90;;;;;;;6.57;61.71;98982.64;105607;1254;62623;-54
2023/03/09 03:54:07;;;;;;;13.20;9.80;;;;;;;6.64;61.68;98978.82;105621;1254;64659;-54
2023/03/09 03:56:36;;;;;;;15.70;10.00;;;;;;;6.70;61.53;98979.54;105471;1254;60521;-54
2023/03/09 03:59:10;;;;;;;16.10;10.40;;;;;;;6.72;61.34;98973.52;105530;1254;60444;-53
2023/03/09 04:01:39;;;;;;;10.10;5.10;;;;;;;6.71;61.31;98964.83;105458;1254;65176;-53
2023/03/09 04:04:09;;;;;;;14.50;10.10;;;;;;;6.69;61.27;98963.60;105517;1254;62321;-54
2023/03/09 04:06:42;;;;;;;15.30;10.70;;;;;;;6.65;61.46;98959.08;105508;1254;64844;-54
2023/03/09 04:09:11;;;;;;;14.90;10.10;;;;;;;6.61;61.54;98951.02;105632;1254;60472;-54
2023/03/09 04:11:41;;;;;;;16.00;10.10;;;;;;;6.58;61.60;98950.46;105503;1257;60513;-54
2023/03/09 04:14:14;;;;;;;10.00;4.70;;;;;;;6.55;61.67;98943.20;105552;1258;66068;-53
2023/03/09 04:16:42;;;;;;;14.90;10.50;;;;;;;6.59;61.72;98935.34;105490;1254;70954;-55
2023/03/09 04:19:11;;;;;;;15.60;9.80;;;;;;;6.65;61.56;98930.65;105488;1254;65224;-54
2023/03/09 04:21:43;;;;;;;8.80;3.40;;;;;;;6.71;61.54;98925.25;105377;1254;61798;-56
2023/03/09 04:24:13;;;;;;;13.20;9.40;;;;;;;6.75;61.39;98919.20;105517;1258;60562;-54
2023/03/09 04:26:42;;;;;;;11.20;9.10;;;;;;;6.76;61.49;98910.17;105502;1259;66062;-55
2023/03/09 04:29:19;;;;;;;11.90;8.70;;;;;;;6.78;61.42;98907.96;105893;1259;61367;-52
2023/03/09 04:31:48;;;;;;;16.10;10.90;;;;;;;6.77;61.18;98905.91;105527;1254;64910;-53
2023/03/09 04:34:16;;;;;;;17.10;11.00;;;;;;;6.74;61.05;98899.92;105465;1254;60504;-52
2023/03/09 04:36:44;;;;;;;14.30;9.70;;;;;;;6.71;61.11;98894.10;105588;1254;60565;-54
2023/03/09 04:39:13;;;;;;;17.40;10.70;;;;;;;6.67;61.16;98897.36;105414;1254;66207;-53
2023/03/09 04:41:41;;;;;;;7.60;4.10;;;;;;;6.64;61.23;98902.36;105658;1257;62668;-53
2023/03/09 04:44:12;;;;;;;13.80;10.40;;;;;;;6.61;61.26;98900.91;105629;1254;64979;-53
2023/03/09 04:46:41;;;;;;;15.30;10.20;;;;;;;6.58;61.41;98898.02;105546;1254;60485;-53
2023/03/09 04:49:11;;;;;;;16.50;10.10;;;;;;;6.62;61.40;98890.17;105515;1254;60488;-53
2023/03/09 04:51:41;;;;;;;13.40;9.40;;;;;;;6.68;61.37;98878.63;105549;1258;66265;-53
2023/03/09 04:54:13;;;;;;;12.60;8.80;;;;;;;6.76;61.31;98871.02;105458;1260;62611;-52
2023/03/09 04:56:42;;;;;;;27.40;10.10;;;;;;;6.81;61.41;98866.70;105541;1254;65004;-53
2023/03/09 04:59:16;;;;;;;15.30;10.70;;;;;;;6.85;61.45;98856.61;105517;1254;60565;-53
2023/03/09 05:01:45;;;;;;;7.60;3.60;;;;;;;6.88;61.39;98847.94;105672;1254;60530;-55
2023/03/09 05:04:19;;;;;;;14.90;10.60;;;;;;;6.90;61.27;98843.08;105678;1257;65931;-53
2023/03/09 05:06:52;;;;;;;15.70;10.80;;;;;;;6.91;61.26;98836.55;105506;1254;62246;-53
2023/03/09 05:09:22;;;;;;;14.90;10.20;;;;;;;6.91;61.31;98835.55;105714;1254;65136;-53
2023/03/09 05:11:51;;;;;;;14.90;9.80;;;;;;;6.90;61.33;98831.40;105624;1253;60532;-54
2023/03/09 05:14:26;;;;;;;13.10;9.50;;;;;;;6.87;61.44;98825.67;105644;1254;60411;-54
2023/03/09 05:16:55;;;;;;;9.80;3.50;;;;;;;6.92;61.41;98815.23;105505;1259;65897;-53
2023/03/09 05:19:27;;;;;;;16.00;8.80;;;;;;;6.98;61.41;98802.27;105640;1253;62531;-53
2023/03/09 05:21:59;;;;;;;13.40;9.20;;;;;;;7.05;61.43;98792.23;105592;1254;64908;-54
2023/03/09 05:24:27;;;;;;;14.20;9.10;;;;;;;7.09;61.36;98787.31;105655;1254;60456;-53
2023/03/09 05:26:56;;;;;;;16.30;8.60;;;;;;;7.14;61.33;98787.25;105672;1256;60454;-53
2023/03/09 05:29:29;;;;;;;12.30;8.80;;;;;;;7.18;61.11;98789.19;105655;1256;66142;-54
2023/03/09 05:31:57;;;;;;;12.00;9.50;;;;;;;7.18;61.07;98788.41;105482;1254;62987;-53
2023/03/09 05:34:26;;;;;;;9.90;4.00;;;;;;;7.18;61.09;98787.34;105637;1258;64670;-54
2023/03/09 05:36:57;;;;;;;12.90;9.30;;;;;;;7.20;61.18;98789.80;105569;1254;60479;-54
2023/03/09 05:39:27;;;;;;;13.80;10.30;;;;;;;7.22;61.25;98787.69;105681;1260;60432;-53
2023/03/09 05:41:56;;;;;;;13.20;8.80;;;;;;;7.25;61.41;98792.33;105496;1259;66047;-52
2023/03/09 05:44:32;;;;;;;7.20;3.20;;;;;;;7.33;61.39;98790.42;105529;1254;62912;-56
2023/03/09 05:47:01;;;;;;;12.10;9.00;;;;;;;7.44;61.24;98786.09;105623;1254;64136;-53
2023/03/09 05:49:30;;;;;;;14.90;9.10;;;;;;;7.53;61.08;98786.98;105551;1254;60451;-53
2023/03/09 05:51:59;;;;;;;11.80;8.40;;;;;;;7.58;61.12;98781.61;105618;1258;60469;-54
2023/03/09 05:54:28;;;;;;;14.10;9.00;;;;;;;7.63;61.04;98774.88;105728;1253;66221;-53
2023/03/09 05:56:59;;;;;;;13.60;9.20;;;;;;;7.68;60.95;98773.23;105711;1254;63072;-53
2023/03/09 05:59:28;;;;;;;12.90;8.50;;;;;;;7.70;60.70;98767.73;105581;1257;65185;-54
2023/03/09 06:01:57;;;;;;;14.20;8.90;;;;;;;7.72;60.67;98770.88;106768;1254;60432;-53
2023/03/09 06:04:29;;;;;;;14.70;10.00;;;;;;;7.75;60.58;98773.98;105541;1254;60447;-54
2023/03/09 06:07:00;;;;;;;12.50;9.00;;;;;;;7.76;60.37;98768.41;105643;1254;64877;-54
2023/03/09 06:09:33;;;;;;;15.20;9.60;;;;;;;7.79;60.22;98773.77;105474;1254;62205;-53
2023/03/09 06:12:04;;;;;;;12.60;9.10;;;;;;;7.88;60.01;98776.53;105593;1254;63913;-54
2023/03/09 06:14:33;;;;;;;13.30;8.80;;;;;;;7.99;59.86;98773.89;105673;1254;60616;-54
2023/03/09 06:17:03;;;;;;;13.30;8.40;;;;;;;8.08;59.71;98769.06;105509;1254;60517;-53
2023/03/09 06:19:33;;;;;;;12.50;7.60;;;;;;;8.15;59.43;98776.13;105596;1254;64895;-54
2023/03/09 06:22:02;;;;;;;11.10;7.90;;;;;;;8.20;59.18;98773.14;105746;1254;62338;-53
2023/03/09 06:24:36;;;;;;;13.30;8.40;;;;;;;8.27;58.88;98776.02;105503;1258;64739;-53
2023/03/09 06:27:05;;;;;;;12.20;7.80;;;;;;;8.32;58.76;98773.02;105734;1258;60645;-54
2023/03/09 06:29:35;;;;;;;12.40;8.30;;;;;;;8.39;58.57;98767.81;105672;1254;60565;-56
2023/03/09 06:32:04;;;;;;;12.20;8.30;;;;;;;8.46;58.40;98768.09;105569;1254;65197;-54
2023/03/09 06:34:35;;;;;;;11.30;8.50;;;;;;;8.50;58.10;98771.52;105560;1260;62367;-54
2023/03/09 06:37:07;;;;;;;12.00;8.30;;;;;;;8.56;58.13;98759.45;105513;1259;73792;-54
2023/03/09 06:39:36;;;;;;;12.80;8.00;;;;;;;8.68;57.99;98761.20;105500;1254;60440;-53
2023/03/09 06:42:05;;;;;;;13.50;7.80;;;;;;;8.83;57.50;98763.60;105664;1259;60389;-53
2023/03/09 06:44:51;;;;;;;13.80;9.30;;;;;;;8.96;57.37;98759.05;105657;1254;65230;-52
2023/03/09 06:47:21;;;;;;;11.30;7.70;;;;;;;9.05;57.11;98763.95;105345;1259;62392;-53
2023/03/09 06:49:52;;;;;;;11.50;7.90;;;;;;;9.14;56.83;98759.33;105530;1260;65008;-53
2023/03/09 06:52:22;;;;;;;13.20;7.90;;;;;;;9.23;56.75;98759.48;105526;1259;60543;-52
2023/03/09 06:54:54;;;;;;;14.20;8.10;;;;;;;9.32;56.61;98758.42;105572;1253;60555;-52
2023/03/09 06:57:42;;;;;;;14.50;8.00;;;;;;;9.41;56.26;98752.47;105721;1257;66084;-52
2023/03/09 07:00:11;;;;;;;11.10;7.70;;;;;;;9.45;56.01;98744.98;105621;1254;62338;-52
2023/03/09 07:02:41;;;;;;;14.10;9.10;;;;;;;9.46;55.67;98743.61;105589;1257;65029;-53
2023/03/09 07:05:09;;;;;;;13.30;8.20;;;;;;;9.47;55.58;98741.11;105635;1254;61730;-52
2023/03/09 07:07:43;;;;;;;13.40;8.20;;;;;;;9.47;55.45;98743.22;105738;1258;60386;-53
2023/03/09 07:10:12;;;;;;;12.10;7.90;;;;;;;9.46;55.60;98739.50;105836;1257;66560;-51
2023/03/09 07:12:43;;;;;;;13.30;8.90;;;;;;;9.48;55.68;98747.52;105575;1254;62671;-51
2023/03/09 07:15:12;;;;;;;11.40;8.30;;;;;;;9.50;55.57;98744.36;105747;1254;65021;-52
2023/03/09 07:17:46;;;;;;;11.40;7.70;;;;;;;9.51;55.51;98744.45;105528;1254;60624;-53
2023/03/09 07:20:15;;;;;;;13.50;8.10;;;;;;;9.54;55.69;98739.18;105622;1259;60436;-52
2023/03/09 07:22:44;;;;;;;10.60;7.30;;;;;;;9.65;55.56;98741.56;105655;1255;64802;-52
2023/03/09 07:25:13;;;;;;;11.40;7.40;;;;;;;9.77;55.19;98740.86;105754;1254;62804;-54
2023/03/09 07:27:42;;;;;;;11.30;7.80;;;;;;;9.85;54.83;98739.89;105663;1260;65056;-53
2023/03/09 07:30:11;;;;;;;11.60;7.80;;;;;;;9.91;54.96;98737.14;105617;1254;60491;-52
2023/03/09 07:32:40;;;;;;;15.50;7.80;;;;;;;9.98;54.81;98734.38;105825;1254;60540;-53
2023/03/09 07:35:09;;;;;;;12.30;8.20;;;;;;;10.03;54.54;98731.20;105524;1259;66306;-52
2023/03/09 07:37:42;;;;;;;12.10;7.80;;;;;;;10.08;54.55;98725.76;105539;1255;62358;-54
2023/03/09 07:40:13;;;;;;;11.30;7.60;;;;;;;10.13;54.46;98731.55;105610;1259;65193;-53
2023/03/09 07:42:42;;;;;;;12.70;8.80;;;;;;;10.17;54.51;98734.79;105616;1254;60501;-51
2023/03/09 07:45:38;;;;;;;10.40;7.30;;;;;;;10.24;54.14;98734.60;105574;1254;60496;-52
2023/03/09 07:48:06;;;;;;;10.60;7.30;;;;;;;10.31;54.07;98732.17;105587;1254;66211;-52
2023/03/09 07:50:36;;;;;;;11.90;7.50;;;;;;;10.37;53.96;98734.30;105895;1254;62441;-55
2023/03/09 07:53:04;;;;;;;15.00;7.70;;;;;;;10.45;53.68;98732.27;105734;1260;66062;-53
2023/03/09 07:55:34;;;;;;;11.10;8.10;;;;;;;10.52;53.46;98732.59;105597;1260;60577;-53
2023/03/09 07:58:03;;;;;;;11.90;7.80;;;;;;;10.57;53.15;98731.05;105670;1258;60562;-53
2023/03/09 08:00:32;;;;;;;10.10;7.30;;;;;;;10.61;53.26;98731.95;105558;1259;64892;-53
2023/03/09 08:03:01;;;;;;;10.70;7.40;;;;;;;10.67;52.99;98725.92;105665;1264;63089;-54
2023/03/09 08:05:29;;;;;;;11.60;7.70;;;;;;;10.72;52.84;98727.33;105609;1260;65057;-54
2023/03/09 08:07:58;;;;;;;11.80;7.40;;;;;;;10.78;52.77;98735.25;105608;1260;60556;-54
2023/03/09 08:10:28;;;;;;;11.00;7.90;;;;;;;10.86;52.65;98737.20;105606;1260;60511;-51
2023/03/09 08:12:57;;;;;;;11.90;7.00;;;;;;;10.96;52.50;98737.59;105616;1257;66462;-53
2023/03/09 08:15:26;;;;;;;11.50;7.40;;;;;;;11.05;52.27;98736.45;105553;1258;62622;-51
2023/03/09 08:17:55;;;;;;;11.40;7.20;;;;;;;11.13;52.08;98738.52;105694;1260;65121;-50
2023/03/09 08:20:23;;;;;;;10.40;6.80;;;;;;;11.22;51.79;98735.48;105539;1257;60596;-53
2023/03/09 08:22:52;;;;;;;12.20;7.80;;;;;;;11.28;51.64;98724.95;105496;1260;61291;-53
2023/03/09 08:25:20;;;;;;;11.40;6.60;;;;;;;11.33;51.54;98723.18;105650;1260;64991;-52
2023/03/09 08:27:49;;;;;;;9.20;6.30;;;;;;;11.38;51.49;98719.28;105653;1258;62817;-52
2023/03/09 08:30:20;;;;;;;10.20;6.60;;;;;;;11.45;51.52;98719.83;105566;1259;65155;-52
2023/03/09 08:32:49;;;;;;;11.30;6.70;;;;;;;11.52;51.27;98716.42;105681;1254;61077;-50
2023/03/09 08:35:19;;;;;;;10.20;7.70;;;;;;;11.61;50.95;98715.92;105628;1259;60493;-54
2023/03/09 08:37:51;;;;;;;10.90;6.50;;;;;;;11.69;50.89;98711.98;105342;1258;238582;-53
2023/03/09 08:41:47;;;;;;;10.80;6.10;;;;;;;11.64;50.95;98713.75;102496;1294;601116;-55
2023/03/09 08:44:15;;;;;;;9.90;6.50;;;;;;;11.93;50.57;98712.14;104724;1270;59413;-52
2023/03/09 08:46:43;;;;;;;11.30;7.10;;;;;;;12.05;49.99;98710.52;104750;1270;59389;-52
2023/03/09 08:49:16;;;;;;;8.20;5.70;;;;;;;12.15;49.73;98714.08;104599;1268;64456;-53
2023/03/09 08:51:44;;;;;;;10.40;6.40;;;;;;;12.21;49.69;98714.54;104603;1267;62396;-52
2023/03/09 08:54:13;;;;;;;12.00;6.50;;;;;;;12.31;49.66;98702.44;104603;1270;185750;-53
2023/03/09 08:56:41;;;;;;;8.90;6.00;;;;;;;12.44;49.54;98699.06;104922;1268;59545;-53
2023/03/09 08:59:11;;;;;;;9.20;5.70;;;;;;;12.56;49.33;98707.17;104887;1266;59388;-53
2023/03/09 09:01:41;;;;;;;8.80;5.80;;;;;;;12.65;48.85;98713.17;105078;1268;64665;-51
2023/03/09 09:04:09;;;;;;;10.80;6.30;;;;;;;12.71;48.51;98705.45;104933;1268;62666;-53
2023/03/09 09:06:38;;;;;;;10.30;6.60;;;;;;;12.79;48.58;98701.91;104902;1267;65244;-53
2023/03/09 09:09:08;;;;;;;9.90;6.00;;;;;;;12.89;48.58;98707.14;105049;1260;59617;-53
2023/03/09 09:11:36;;;;;;;8.70;6.30;;;;;;;12.98;48.11;98705.66;105078;1263;59616;-53
2023/03/09 09:14:06;;;;;;;10.00;6.00;;;;;;;13.06;47.93;98705.14;105124;1263;65528;-52
2023/03/09 09:16:35;;;;;;;7.40;5.20;;;;;;;13.15;47.87;98705.48;105160;1265;62473;-53
2023/03/09 09:19:03;;;;;;;7.50;5.70;;;;;;;13.21;47.56;98704.39;105203;1261;64752;-52
2023/03/09 09:21:38;;;;;;;9.70;6.20;;;;;;;13.22;47.46;98718.38;105052;1263;59557;-52
2023/03/09 09:24:06;;;;;;;9.80;5.70;;;;;;;13.17;47.75;98719.23;105211;1261;59644;-53
2023/03/09 09:26:34;;;;;;;9.70;6.10;;;;;;;13.12;48.18;98717.63;105281;1265;65564;-52
2023/03/09 09:29:04;;;;;;;9.40;5.70;;;;;;;13.15;48.30;98720.73;105158;1264;63053;-53
2023/03/09 09:31:33;;;;;;;9.60;5.80;;;;;;;13.11;48.35;98715.46;105069;1265;63735;-54
2023/03/09 09:34:02;;;;;;;8.90;5.20;;;;;;;13.10;48.49;98724.17;105156;1260;59650;-54
2023/03/09 09:36:33;;;;;;;7.30;4.70;;;;;;;13.14;48.52;98729.55;106381;1260;59657;-53
2023/03/09 09:39:02;;;;;;;9.20;5.40;;;;;;;13.12;48.58;98734.62;105154;1265;65393;-53
2023/03/09 09:41:40;;;;;;;9.70;5.40;;;;;;;13.06;48.62;98734.10;105050;1263;61632;-52
2023/03/09 09:44:17;;;;;;;8.70;5.40;;;;;;;13.00;48.74;98737.48;105192;1263;65012;-55
2023/03/09 09:46:46;;;;;;;9.20;6.00;;;;;;;12.98;48.99;98731.09;105056;1266;59659;-53
2023/03/09 09:49:19;;;;;;;8.70;5.60;;;;;;;12.99;49.13;98727.54;105063;1266;59756;-53
2023/03/09 09:52:04;;;;;;;8.30;6.00;;;;;;;12.98;49.08;98728.34;105114;1265;65370;-54
2023/03/09 09:54:54;;;;;;;8.20;5.80;;;;;;;12.99;49.20;98725.14;105037;1266;62637;-53
2023/03/09 09:57:28;;;;;;;8.60;6.20;;;;;;;12.94;49.48;98724.79;105169;1266;64013;-53
2023/03/09 10:00:05;;;;;;;9.70;6.00;;;;;;;12.96;49.50;98722.98;105139;1266;59649;-54
2023/03/09 10:03:01;;;;;;;9.00;5.80;;;;;;;13.09;49.20;98713.79;105025;1266;59689;-54
2023/03/09 10:05:39;;;;;;;8.80;5.30;;;;;;;13.18;49.29;98713.70;104964;1261;64458;-54
2023/03/09 10:08:35;;;;;;;7.80;5.40;;;;;;;13.22;49.23;98707.25;105015;1266;62666;-54
2023/03/09 10:11:32;;;;;;;9.90;5.50;;;;;;;13.31;49.02;98701.86;105532;1257;63696;-54
2023/03/09 10:14:06;;;;;;;11.10;5.90;;;;;;;13.41;48.87;98699.58;105589;1256;59646;-54
2023/03/09 10:16:41;;;;;;;9.70;5.80;;;;;;;13.52;48.44;98695.16;105748;1252;59795;-53
2023/03/09 10:19:17;;;;;;;8.60;4.70;;;;;;;13.61;48.16;98694.60;105710;1258;65299;-54
2023/03/09 10:21:54;;;;;;;10.70;5.50;;;;;;;13.70;48.01;98691.06;105761;1254;62313;-52
2023/03/09 10:24:26;;;;;;;7.80;5.20;;;;;;;13.86;47.42;98691.41;105659;1253;63863;-52
2023/03/09 10:27:37;;;;;;;8.20;5.30;;;;;;;13.91;47.02;98687.56;105645;1256;59648;-52
2023/03/09 10:30:15;;;;;;;7.70;5.10;;;;;;;13.98;46.90;98680.32;105643;1254;59626;-50
2023/03/09 10:32:52;;;;;;;7.90;4.40;;;;;;;14.04;46.62;98676.55;105549;1259;65080;-54
2023/03/09 10:35:36;;;;;;;7.10;4.90;;;;;;;14.11;46.27;98674.76;105897;1254;62394;-55
2023/03/09 10:38:15;;;;;;;7.00;4.60;;;;;;;14.20;46.07;98666.88;105732;1255;65349;-53
2023/03/09 10:40:48;;;;;;;8.60;4.90;;;;;;;14.30;45.95;98662.14;105537;1257;59576;-54
2023/03/09 10:43:26;;;;;;;8.30;4.50;;;;;;;14.44;45.72;98651.02;105647;1257;59201;-54
2023/03/09 10:45:57;;;;;;;8.70;5.20;;;;;;;14.59;45.78;98643.67;105684;1256;65098;-54
2023/03/09 10:48:26;;;;;;;10.80;5.30;;;;;;;14.76;45.56;98642.84;105705;1257;61631;-54
2023/03/09 10:51:05;;;;;;;8.40;4.40;;;;;;;14.94;45.22;98647.54;105603;1254;64824;-53
2023/03/09 10:53:36;;;;;;;6.90;3.80;;;;;;;15.08;44.58;98642.23;105727;1257;59673;-53
2023/03/09 10:56:11;;;;;;;9.20;4.10;;;;;;;15.14;44.22;98647.34;105710;1254;59658;-53
2023/03/09 10:58:39;;;;;;;7.90;4.60;;;;;;;15.13;44.36;98641.37;105513;1260;64111;-52
2023/03/09 11:01:11;;;;;;;8.20;4.60;;;;;;;15.12;44.51;98635.90;105722;1254;62604;-53
2023/03/09 11:03:45;;;;;;;7.10;4.60;;;;;;;15.08;44.48;98634.42;105398;1254;65006;-50
2023/03/09 11:06:34;;;;;;;6.60;4.20;;;;;;;15.03;44.63;98635.54;105549;1254;59792;-53
2023/03/09 11:09:07;;;;;;;8.30;4.20;;;;;;;14.97;44.84;98629.59;106151;1253;59759;-52
2023/03/09 11:11:45;;;;;;;7.30;4.20;;;;;;;14.96;45.09;98624.52;105739;1252;64947;-53
2023/03/09 11:14:29;;;;;;;8.10;4.90;;;;;;;14.97;45.12;98623.14;105688;1258;61329;-52
2023/03/09 11:16:59;;;;;;;7.00;4.30;;;;;;;14.97;45.01;98623.34;105680;1255;65056;-53
2023/03/09 11:19:32;;;;;;;8.20;4.80;;;;;;;14.96;45.15;98625.54;105691;1254;59758;-52
2023/03/09 11:22:05;;;;;;;10.50;4.50;;;;;;;14.96;45.17;98627.70;105722;1257;59758;-53
2023/03/09 11:24:43;;;;;;;6.70;4.60;;;;;;;14.96;45.33;98627.33;105528;1254;65689;-51
2023/03/09 11:27:24;;;;;;;6.60;4.10;;;;;;;14.96;45.27;98621.80;105678;1257;62592;-51
2023/03/09 11:29:57;;;;;;;7.30;4.30;;;;;;;14.98;45.30;98618.05;105684;1251;63750;-52
2023/03/09 11:32:25;;;;;;;8.00;4.30;;;;;;;15.00;45.34;98616.32;105651;1253;59672;-52
2023/03/09 11:34:54;;;;;;;8.50;3.90;;;;;;;15.03;45.38;98602.65;105738;1257;59523;-53
2023/03/09 11:37:33;;;;;;;5.80;3.90;;;;;;;15.10;45.31;98603.33;105654;1255;64218;-53
2023/03/09 11:40:11;;;;;;;7.90;4.50;;;;;;;15.18;45.35;98604.23;105599;1255;62421;-53
2023/03/09 11:42:45;;;;;;;6.70;3.90;;;;;;;15.28;45.28;98602.45;105694;1254;64717;-53
2023/03/09 11:45:17;;;;;;;7.40;4.30;;;;;;;15.38;45.24;98591.77;105703;1254;59736;-53
2023/03/09 11:48:04;;;;;;;8.20;4.70;;;;;;;15.50;45.05;98588.75;105738;1254;59769;-53